Time;durP1;ratioP1;P1;durP2;ratioP2;P2;SDS_P1;SDS_P2;PMS_P1;PMS_P2;Temp;Humidity;BMP_temperature;BMP_pressure;BME280_temperature;BME280_humidity;BME280_pressure;Samples;Min_cycle;Max_cycle;Signal;HPM_P1;HPM_P2
2024/04/05 00:01:31;;;;;;;3.65;1.05;;;10.10;99.90;;;;;;5072197;28;20104;-73
2024/04/05 00:03:57;;;;;;;0.77;0.68;;;10.10;99.90;;;;;;5071368;28;20043;-74
2024/04/05 00:06:23;;;;;;;3.63;0.77;;;10.10;99.90;;;;;;5072891;28;20024;-74
2024/04/05 00:08:49;;;;;;;1.40;0.57;;;10.10;99.90;;;;;;5073384;28;20126;-74
2024/04/05 00:11:14;;;;;;;0.50;0.50;;;10.20;99.90;;;;;;5071909;28;20119;-73
2024/04/05 00:13:40;;;;;;;3.13;1.08;;;10.30;99.90;;;;;;5072528;28;20032;-74
2024/04/05 00:16:07;;;;;;;1.85;1.10;;;10.30;99.90;;;;;;5073148;28;20024;-73
2024/04/05 00:18:35;;;;;;;1.00;0.90;;;10.30;99.90;;;;;;5073095;28;20032;-73
2024/04/05 00:21:02;;;;;;;3.08;1.92;;;10.30;99.90;;;;;;5072928;28;20020;-74
2024/04/05 00:23:28;;;;;;;1.70;1.13;;;10.40;99.90;;;;;;5072340;28;20035;-73
2024/04/05 00:26:00;;;;;;;1.35;1.02;;;10.40;99.90;;;;;;5073047;28;20021;-74
2024/04/05 00:28:29;;;;;;;1.10;0.90;;;10.40;99.90;;;;;;5071798;28;20425;-74
2024/04/05 00:30:55;;;;;;;2.15;0.80;;;10.40;99.90;;;;;;5071873;28;20032;-73
2024/04/05 00:33:21;;;;;;;0.68;0.57;;;10.30;99.90;;;;;;5072543;28;20028;-73
2024/04/05 00:35:56;;;;;;;0.38;0.38;;;10.40;99.90;;;;;;5073183;28;20090;-74
2024/04/05 00:38:24;;;;;;;0.63;0.50;;;10.40;99.90;;;;;;5071527;28;20024;-74
2024/04/05 00:40:51;;;;;;;0.65;0.50;;;10.40;99.90;;;;;;5072296;28;20067;-74
2024/04/05 00:43:17;;;;;;;0.73;0.50;;;10.40;99.90;;;;;;5069520;28;20032;-73
2024/04/05 00:45:46;;;;;;;1.95;1.20;;;10.30;99.90;;;;;;5072013;28;20016;-73
2024/04/05 00:48:12;;;;;;;1.17;0.85;;;10.40;99.90;;;;;;5070673;28;20035;-73
2024/04/05 00:50:39;;;;;;;1.80;0.75;;;10.40;99.90;;;;;;5072113;28;20099;-73
2024/04/05 00:53:06;;;;;;;0.60;0.60;;;10.50;99.90;;;;;;5071314;28;20029;-73
2024/04/05 00:55:33;;;;;;;0.52;0.47;;;10.50;99.90;;;;;;5070953;28;20021;-74
2024/04/05 00:58:03;;;;;;;5.00;1.10;;;10.60;99.90;;;;;;5072377;28;20029;-74
2024/04/05 01:00:29;;;;;;;0.70;0.65;;;10.60;99.90;;;;;;5072279;28;20028;-73
2024/04/05 01:02:55;;;;;;;0.93;0.90;;;10.50;99.90;;;;;;5069484;28;20352;-73
2024/04/05 01:05:21;;;;;;;1.42;0.68;;;10.50;99.90;;;;;;5072204;28;20474;-74
2024/04/05 01:07:49;;;;;;;1.33;0.82;;;10.50;99.90;;;;;;5072141;28;20055;-74
2024/04/05 01:10:14;;;;;;;0.60;0.60;;;10.50;99.90;;;;;;5072024;28;20035;-73
2024/04/05 01:12:40;;;;;;;3.75;1.20;;;10.50;99.90;;;;;;5070307;28;20037;-74
2024/04/05 01:15:06;;;;;;;1.85;0.70;;;10.50;99.90;;;;;;5071821;28;20017;-73
2024/04/05 01:17:34;;;;;;;2.67;0.80;;;10.50;99.90;;;;;;5071126;28;20086;-74
2024/04/05 01:20:01;;;;;;;1.48;1.10;;;10.50;99.90;;;;;;5071683;28;20028;-74
2024/04/05 01:22:34;;;;;;;1.05;0.73;;;10.50;99.90;;;;;;5071991;28;20581;-73
2024/04/05 01:25:00;;;;;;;1.98;1.05;;;10.50;99.90;;;;;;5068943;28;20036;-74
2024/04/05 01:27:26;;;;;;;2.35;1.20;;;10.60;99.90;;;;;;5071247;28;20020;-74
2024/04/05 01:29:51;;;;;;;0.98;0.80;;;10.60;99.90;;;;;;5070239;28;20071;-73
2024/04/05 01:32:17;;;;;;;1.92;0.75;;;10.60;99.90;;;;;;5071621;28;20534;-74
2024/04/05 01:34:43;;;;;;;3.97;1.05;;;10.50;99.90;;;;;;5071108;28;20122;-74
2024/04/05 01:37:09;;;;;;;3.20;1.30;;;10.50;99.90;;;;;;5071726;28;20032;-74
2024/04/05 01:39:35;;;;;;;1.40;0.77;;;10.40;99.90;;;;;;5071598;28;20115;-73
2024/04/05 01:42:01;;;;;;;2.78;1.23;;;10.40;99.90;;;;;;5071385;28;20016;-73
2024/04/05 01:44:26;;;;;;;2.13;0.70;;;10.40;99.90;;;;;;5069670;28;20020;-74
2024/04/05 01:46:52;;;;;;;1.15;0.90;;;10.40;99.90;;;;;;5071575;28;20020;-74
2024/04/05 01:49:18;;;;;;;1.30;1.20;;;10.50;99.90;;;;;;5070372;28;20021;-75
2024/04/05 01:51:43;;;;;;;6.68;6.07;;;10.50;99.90;;;;;;5071216;28;20029;-73
2024/04/05 01:54:09;;;;;;;2.90;2.58;;;10.40;99.90;;;;;;5061529;28;20032;-73
2024/04/05 01:56:34;;;;;;;1.85;1.55;;;10.40;99.90;;;;;;5071256;28;20032;-74
2024/04/05 01:59:00;;;;;;;1.55;1.45;;;10.50;99.90;;;;;;5071257;28;20491;-74
2024/04/05 02:01:26;;;;;;;1.48;1.23;;;10.50;99.90;;;;;;5070890;28;20023;-73
2024/04/05 02:03:51;;;;;;;1.27;1.02;;;10.50;99.90;;;;;;5069393;28;20031;-74
2024/04/05 02:06:17;;;;;;;2.03;1.40;;;10.50;99.90;;;;;;5068764;28;20074;-74
2024/04/05 02:08:43;;;;;;;0.82;0.80;;;10.50;99.90;;;;;;5070750;28;20490;-73
2024/04/05 02:11:09;;;;;;;1.42;1.15;;;10.50;99.90;;;;;;5071218;28;20060;-74
2024/04/05 02:13:34;;;;;;;2.58;1.05;;;10.40;99.90;;;;;;5070779;28;20027;-74
2024/04/05 02:16:00;;;;;;;1.60;1.10;;;10.40;99.90;;;;;;5071297;28;20104;-74
2024/04/05 02:18:26;;;;;;;2.45;1.25;;;10.40;99.90;;;;;;5071381;28;20042;-73
2024/04/05 02:20:56;;;;;;;2.50;1.40;;;10.40;99.90;;;;;;5071052;28;20032;-74
2024/04/05 02:23:22;;;;;;;3.42;1.10;;;10.40;99.90;;;;;;5069219;28;20027;-74
2024/04/05 02:25:49;;;;;;;2.95;1.10;;;10.30;99.90;;;;;;5070006;28;20025;-74
2024/04/05 02:28:14;;;;;;;1.35;0.95;;;10.40;99.90;;;;;;5072689;28;20032;-74
2024/04/05 02:30:40;;;;;;;3.72;1.75;;;10.30;99.90;;;;;;5075076;28;20025;-74
2024/04/05 02:33:06;;;;;;;1.33;1.17;;;10.40;99.90;;;;;;5073194;28;20498;-74
2024/04/05 02:35:32;;;;;;;1.75;0.90;;;10.40;99.90;;;;;;5075108;28;20033;-73
2024/04/05 02:37:58;;;;;;;1.77;1.05;;;10.40;99.90;;;;;;5074779;28;20035;-74
2024/04/05 02:40:23;;;;;;;1.23;0.90;;;10.40;99.90;;;;;;5075034;28;20096;-73
2024/04/05 02:42:49;;;;;;;0.85;0.82;;;10.40;99.90;;;;;;5074777;28;20391;-73
2024/04/05 02:45:15;;;;;;;1.48;0.93;;;10.40;99.90;;;;;;5073837;28;20020;-73
2024/04/05 02:47:40;;;;;;;3.20;1.10;;;10.40;99.90;;;;;;5074062;28;20052;-74
2024/04/05 02:50:06;;;;;;;1.13;0.80;;;10.40;99.90;;;;;;5074251;28;20024;-74
2024/04/05 02:52:34;;;;;;;0.85;0.82;;;10.40;99.90;;;;;;5073277;28;20574;-73
2024/04/05 02:54:59;;;;;;;0.88;0.63;;;10.40;99.90;;;;;;5072869;28;20485;-74
2024/04/05 02:57:25;;;;;;;1.02;0.77;;;10.40;99.90;;;;;;5074679;28;20024;-74
2024/04/05 02:59:50;;;;;;;1.02;0.80;;;10.40;99.90;;;;;;5073138;28;20028;-74
2024/04/05 03:02:16;;;;;;;1.35;0.88;;;10.40;99.90;;;;;;5074594;28;20029;-74
2024/04/05 03:04:42;;;;;;;1.10;0.80;;;10.40;99.90;;;;;;5073964;28;20060;-73
2024/04/05 03:07:07;;;;;;;0.68;0.60;;;10.40;99.90;;;;;;5074474;28;20031;-74
2024/04/05 03:09:35;;;;;;;0.88;0.77;;;10.40;99.90;;;;;;5074509;28;20390;-73
2024/04/05 03:12:01;;;;;;;1.15;0.80;;;10.40;99.90;;;;;;5072957;28;20090;-73
2024/04/05 03:14:27;;;;;;;0.57;0.50;;;10.40;99.90;;;;;;5072368;28;20034;-74
2024/04/05 03:16:53;;;;;;;0.93;0.70;;;10.30;99.90;;;;;;5074428;28;20418;-73
2024/04/05 03:19:19;;;;;;;0.77;0.70;;;10.30;99.90;;;;;;5074117;28;20020;-73
2024/04/05 03:21:45;;;;;;;1.20;1.10;;;10.30;99.90;;;;;;5073922;28;20086;-73
2024/04/05 03:24:11;;;;;;;1.23;1.13;;;10.30;99.90;;;;;;5073569;28;20059;-74
2024/04/05 03:26:38;;;;;;;1.27;0.70;;;10.30;99.90;;;;;;5073122;28;20432;-73
2024/04/05 03:29:04;;;;;;;0.75;0.47;;;10.30;99.90;;;;;;5073116;28;20475;-73
2024/04/05 03:31:30;;;;;;;4.18;0.50;;;10.30;99.90;;;;;;5072159;28;20035;-73
2024/04/05 03:33:55;;;;;;;0.80;0.50;;;10.30;99.90;;;;;;5072109;28;20028;-73
2024/04/05 03:36:21;;;;;;;1.58;0.30;;;10.30;99.90;;;;;;5072494;28;20017;-73
2024/04/05 03:38:49;;;;;;;0.77;0.40;;;10.30;99.90;;;;;;5072538;28;20025;-73
2024/04/05 03:41:15;;;;;;;3.63;0.52;;;10.40;99.90;;;;;;5072904;28;20027;-74
2024/04/05 03:43:41;;;;;;;0.73;0.50;;;10.40;99.90;;;;;;5073172;28;20025;-73
2024/04/05 03:46:06;;;;;;;2.10;0.70;;;10.50;99.90;;;;;;5073834;28;20138;-74
2024/04/05 03:48:32;;;;;;;0.70;0.60;;;10.40;99.90;;;;;;5072583;28;20637;-73
2024/04/05 03:50:58;;;;;;;5.88;0.82;;;10.40;99.90;;;;;;5073460;28;20032;-73
2024/04/05 03:53:23;;;;;;;2.08;1.10;;;10.40;99.90;;;;;;5071700;28;20037;-73
2024/04/05 03:55:56;;;;;;;1.17;1.00;;;10.40;99.90;;;;;;5073622;28;20032;-73
2024/04/05 03:58:22;;;;;;;0.80;0.73;;;10.40;99.90;;;;;;5072231;28;20930;-74
2024/04/05 04:00:51;;;;;;;20.50;15.38;;;10.50;99.90;;;;;;5073270;28;20099;-74
2024/04/05 04:03:17;;;;;;;2.90;2.70;;;10.50;99.90;;;;;;5071313;28;20024;-73
2024/04/05 04:05:44;;;;;;;2.72;1.00;;;10.60;99.90;;;;;;5073275;28;20027;-74
2024/04/05 04:08:10;;;;;;;82.45;53.25;;;10.60;99.90;;;;;;5073103;28;20025;-74
2024/04/05 04:10:36;;;;;;;43.20;28.30;;;10.60;99.90;;;;;;5073321;28;20039;-73
2024/04/05 04:13:01;;;;;;;143.23;90.88;;;10.70;99.90;;;;;;5070939;28;20033;-74
2024/04/05 04:15:27;;;;;;;99.68;58.47;;;10.80;99.90;;;;;;5073210;28;20028;-74
2024/04/05 04:17:52;;;;;;;69.18;47.25;;;10.90;99.90;;;;;;5071909;28;20036;-73
2024/04/05 04:20:19;;;;;;;25.17;16.65;;;11.00;99.90;;;;;;5072486;28;20428;-73
2024/04/05 04:22:45;;;;;;;12.38;8.00;;;11.10;99.90;;;;;;5070864;28;20031;-74
2024/04/05 04:25:11;;;;;;;4.03;2.35;;;11.10;99.90;;;;;;5072823;28;20099;-73
2024/04/05 04:27:37;;;;;;;1.20;1.00;;;11.10;99.90;;;;;;5072691;28;20032;-74
2024/04/05 04:30:04;;;;;;;2.85;1.00;;;11.10;99.90;;;;;;5072831;28;20701;-73
2024/04/05 04:32:33;;;;;;;0.70;0.70;;;11.10;99.90;;;;;;5071902;28;20104;-74
2024/04/05 04:34:59;;;;;;;1.13;1.05;;;11.20;99.90;;;;;;5070974;28;20071;-74
2024/04/05 04:37:25;;;;;;;1.73;1.40;;;11.20;99.90;;;;;;5071504;28;20078;-74
2024/04/05 04:39:51;;;;;;;2.35;1.75;;;11.20;99.90;;;;;;5070110;28;20032;-73
2024/04/05 04:42:17;;;;;;;2.42;1.40;;;11.20;99.90;;;;;;5071777;28;20024;-74
2024/04/05 04:44:43;;;;;;;8.52;6.45;;;11.30;99.90;;;;;;5071696;28;20020;-73
2024/04/05 04:47:09;;;;;;;8.40;5.90;;;11.30;99.90;;;;;;5071007;28;20017;-74
2024/04/05 04:49:35;;;;;;;7.60;5.57;;;11.20;99.90;;;;;;5072477;28;20028;-74
2024/04/05 04:52:01;;;;;;;43.88;18.73;;;11.20;99.90;;;;;;5072360;28;20032;-74
2024/04/05 04:54:28;;;;;;;23.77;12.20;;;11.30;99.90;;;;;;5072799;28;20024;-73
2024/04/05 04:56:54;;;;;;;9.63;4.78;;;11.20;99.90;;;;;;5072852;28;20078;-73
2024/04/05 04:59:23;;;;;;;3.97;1.83;;;11.20;99.90;;;;;;5071471;28;20028;-73
2024/04/05 05:01:49;;;;;;;5.70;1.65;;;11.20;99.90;;;;;;5070757;28;20077;-74
2024/04/05 05:04:15;;;;;;;6.65;2.95;;;11.20;99.90;;;;;;5071941;28;20513;-73
2024/04/05 05:06:40;;;;;;;2.63;1.70;;;11.10;99.90;;;;;;5072156;28;20032;-74
2024/04/05 05:09:06;;;;;;;5.50;1.90;;;11.10;99.90;;;;;;5072168;28;20032;-74
2024/04/05 05:11:32;;;;;;;5.03;2.70;;;11.00;99.90;;;;;;5071959;28;20024;-74
2024/04/05 05:13:57;;;;;;;7.85;3.70;;;11.00;99.90;;;;;;5071668;28;20020;-74
2024/04/05 05:16:24;;;;;;;3.10;1.67;;;11.00;99.90;;;;;;5072493;28;20040;-74
2024/04/05 05:18:50;;;;;;;2.80;1.35;;;10.90;99.90;;;;;;5072008;28;20025;-73
2024/04/05 05:21:16;;;;;;;1.52;1.20;;;11.00;99.90;;;;;;5070770;28;20027;-73
2024/04/05 05:23:41;;;;;;;2.47;1.00;;;11.00;99.90;;;;;;5069416;28;20040;-74
2024/04/05 05:26:07;;;;;;;1.98;1.35;;;11.00;99.90;;;;;;5070553;28;20032;-74
2024/04/05 05:28:33;;;;;;;11.55;5.32;;;11.10;99.90;;;;;;5071875;28;20406;-73
2024/04/05 05:30:59;;;;;;;5.95;1.95;;;11.10;99.90;;;;;;5071213;28;20032;-73
2024/04/05 05:33:25;;;;;;;2.72;2.53;;;11.20;99.90;;;;;;5067762;28;20078;-73
2024/04/05 05:35:50;;;;;;;1.48;0.77;;;11.30;99.90;;;;;;5072366;28;20419;-72
2024/04/05 05:38:16;;;;;;;3.72;1.38;;;11.40;99.90;;;;;;5071372;28;20059;-72
2024/04/05 05:40:42;;;;;;;13.13;2.42;;;12.00;99.90;;;;;;5063580;28;20064;-73
2024/04/05 05:43:08;;;;;;;33.38;16.83;;;12.00;99.90;;;;;;5070297;28;20021;-72
2024/04/05 05:45:33;;;;;;;18.75;10.13;;;12.00;99.90;;;;;;5071669;28;20021;-72
2024/04/05 05:47:59;;;;;;;5.38;2.83;;;12.00;99.90;;;;;;5072439;28;20498;-72
2024/04/05 05:50:26;;;;;;;3.72;2.10;;;12.00;99.90;;;;;;5066486;28;20403;-72
2024/04/05 05:52:52;;;;;;;27.35;9.90;;;12.10;99.90;;;;;;5069526;28;20033;-73
2024/04/05 05:55:22;;;;;;;13.13;7.90;;;12.10;99.90;;;;;;5071448;28;20025;-73
2024/04/05 05:57:48;;;;;;;31.77;12.15;;;12.20;99.90;;;;;;5070075;28;20134;-72
2024/04/05 06:00:14;;;;;;;7.80;3.70;;;12.30;99.90;;;;;;5069790;28;20103;-73
2024/04/05 06:02:40;;;;;;;6.07;3.05;;;12.40;99.90;;;;;;5070444;28;20386;-73
2024/04/05 06:05:08;;;;;;;15.30;6.40;;;12.60;99.90;;;;;;5071325;28;20025;-73
2024/04/05 06:07:34;;;;;;;16.83;7.40;;;12.70;99.90;;;;;;5071444;28;20071;-74
2024/04/05 06:10:00;;;;;;;7.10;3.67;;;12.90;99.90;;;;;;5070277;28;20491;-73
2024/04/05 06:12:29;;;;;;;5.80;3.58;;;13.10;99.90;;;;;;5066219;28;20032;-73
2024/04/05 06:14:55;;;;;;;2.10;1.48;;;13.30;99.90;;;;;;5070809;28;20021;-73
2024/04/05 06:17:25;;;;;;;7.38;4.45;;;13.50;99.90;;;;;;5071449;28;20100;-73
2024/04/05 06:19:57;;;;;;;5.05;3.38;;;13.60;99.90;;;;;;5067239;28;20033;-73
2024/04/05 06:22:29;;;;;;;1.65;1.52;;;13.80;99.90;;;;;;5070052;28;20029;-73
2024/04/05 06:24:55;;;;;;;2.10;1.42;;;13.90;99.90;;;;;;5067423;28;20045;-74
2024/04/05 06:27:21;;;;;;;4.88;1.70;;;14.00;99.90;;;;;;5069703;28;20024;-74
2024/04/05 06:29:52;;;;;;;1.27;0.50;;;14.10;99.80;;;;;;5069682;28;20449;-74
2024/04/05 06:32:18;;;;;;;1.55;1.13;;;14.20;98.30;;;;;;5069539;28;20052;-73
2024/04/05 06:34:44;;;;;;;1.20;0.63;;;14.30;97.90;;;;;;5070563;28;20056;-72
2024/04/05 06:37:11;;;;;;;3.28;0.75;;;14.50;97.60;;;;;;5071220;28;20056;-73
2024/04/05 06:39:37;;;;;;;3.63;0.75;;;14.60;96.90;;;;;;5071053;28;20025;-74
2024/04/05 06:42:03;;;;;;;3.78;1.17;;;14.70;96.30;;;;;;5069928;28;20399;-73
2024/04/05 06:44:34;;;;;;;4.65;0.80;;;14.70;95.90;;;;;;5070763;28;20025;-73
2024/04/05 06:47:03;;;;;;;1.10;0.40;;;14.80;95.60;;;;;;5071797;28;20062;-73
2024/04/05 06:49:29;;;;;;;2.25;0.80;;;15.00;95.60;;;;;;5070376;28;20473;-74
2024/04/05 06:51:56;;;;;;;0.50;0.50;;;15.10;95.50;;;;;;5071211;28;20068;-73
2024/04/05 06:54:21;;;;;;;1.10;0.80;;;15.20;94.30;;;;;;5070619;28;20028;-74
2024/04/05 06:56:47;;;;;;;4.63;0.55;;;15.30;94.30;;;;;;5073805;28;20028;-73
2024/04/05 06:59:12;;;;;;;0.95;0.80;;;15.40;94.00;;;;;;5069832;28;20039;-74
2024/04/05 07:01:38;;;;;;;0.63;0.60;;;15.50;94.20;;;;;;5072231;28;20024;-72
2024/04/05 07:04:05;;;;;;;4.95;0.93;;;15.50;93.30;;;;;;5078970;28;20025;-72
2024/04/05 07:06:32;;;;;;;2.42;0.98;;;15.60;93.50;;;;;;5087486;28;20047;-72
2024/04/05 07:08:58;;;;;;;1.05;0.30;;;15.80;93.30;;;;;;5090283;28;20080;-73
2024/04/05 07:11:23;;;;;;;0.90;0.90;;;15.80;92.30;;;;;;5091045;28;20032;-73
2024/04/05 07:13:49;;;;;;;3.22;1.42;;;16.00;92.20;;;;;;5078604;28;20025;-73
2024/04/05 07:16:15;;;;;;;2.00;0.80;;;16.10;92.00;;;;;;5077224;28;20383;-74
2024/04/05 07:18:41;;;;;;;0.57;0.50;;;16.20;90.90;;;;;;5078220;28;20024;-73
2024/04/05 07:21:07;;;;;;;1.85;0.35;;;16.50;89.50;;;;;;5075998;28;20098;-73
2024/04/05 07:23:33;;;;;;;0.77;0.30;;;16.60;87.40;;;;;;5072290;28;20487;-73
2024/04/05 07:25:59;;;;;;;0.32;0.30;;;16.80;86.70;;;;;;5074350;28;20021;-73
2024/04/05 07:28:25;;;;;;;1.40;0.50;;;16.90;84.90;;;;;;5073798;28;20074;-73
2024/04/05 07:30:50;;;;;;;0.50;0.40;;;17.10;84.40;;;;;;5073509;28;20131;-73
2024/04/05 07:33:17;;;;;;;0.90;0.52;;;17.10;83.20;;;;;;5073356;28;20443;-73
2024/04/05 07:35:43;;;;;;;1.38;0.52;;;17.20;84.00;;;;;;5074379;28;20483;-73
2024/04/05 07:38:08;;;;;;;0.85;0.70;;;17.20;82.00;;;;;;5072494;28;20021;-72
2024/04/05 07:40:35;;;;;;;0.50;0.50;;;17.30;81.20;;;;;;5073752;28;20024;-73
2024/04/05 07:43:02;;;;;;;1.30;0.43;;;17.30;80.10;;;;;;5073699;28;20499;-73
2024/04/05 07:45:27;;;;;;;1.67;0.57;;;17.40;81.50;;;;;;5073930;28;20025;-73
2024/04/05 07:47:53;;;;;;;0.57;0.57;;;17.50;81.00;;;;;;5072610;28;20023;-73
2024/04/05 07:50:20;;;;;;;0.45;0.40;;;17.60;80.80;;;;;;5073934;28;20521;-73
2024/04/05 07:52:49;;;;;;;0.57;0.35;;;17.70;79.80;;;;;;5072934;28;20102;-73
2024/04/05 07:55:15;;;;;;;2.15;0.88;;;18.00;77.80;;;;;;5073931;28;20021;-72
2024/04/05 07:57:40;;;;;;;1.27;0.73;;;18.10;78.90;;;;;;5073721;28;20033;-74
2024/04/05 08:00:13;;;;;;;0.93;0.47;;;18.20;78.10;;;;;;5073841;28;20111;-74
2024/04/05 08:02:40;;;;;;;2.10;0.70;;;18.30;78.30;;;;;;5073210;28;20024;-73
2024/04/05 08:05:06;;;;;;;0.43;0.35;;;18.20;74.00;;;;;;5073442;28;20024;-74
2024/04/05 08:07:32;;;;;;;2.10;1.27;;;18.20;72.70;;;;;;5073590;28;20027;-74
2024/04/05 08:09:58;;;;;;;2.25;1.35;;;18.10;74.30;;;;;;5073548;28;20093;-74
2024/04/05 08:12:23;;;;;;;6.28;1.83;;;18.00;74.30;;;;;;5073597;28;20069;-74
2024/04/05 08:14:52;;;;;;;4.13;1.80;;;18.00;73.90;;;;;;5071643;28;20024;-72
2024/04/05 08:17:18;;;;;;;21.60;9.40;;;18.10;75.10;;;;;;5069692;28;20059;-73
2024/04/05 08:19:44;;;;;;;3.78;1.92;;;18.20;74.40;;;;;;5070561;28;20071;-74
2024/04/05 08:22:09;;;;;;;0.40;0.40;;;18.40;73.80;;;;;;5073092;28;20021;-74
2024/04/05 08:24:35;;;;;;;0.82;0.52;;;18.50;72.80;;;;;;5071541;28;20055;-73
2024/04/05 08:27:01;;;;;;;1.55;0.70;;;18.60;73.00;;;;;;5070698;28;20426;-73
2024/04/05 08:29:27;;;;;;;1.25;0.57;;;18.80;70.60;;;;;;5068883;28;20043;-73
2024/04/05 08:31:53;;;;;;;2.47;0.30;;;19.00;69.30;;;;;;5071458;28;20036;-73
2024/04/05 08:34:22;;;;;;;0.40;0.40;;;19.10;68.90;;;;;;5069220;28;20478;-73
2024/04/05 08:36:48;;;;;;;1.10;0.60;;;19.10;70.30;;;;;;5072671;28;20034;-73
2024/04/05 08:39:17;;;;;;;0.70;0.57;;;19.30;69.70;;;;;;5073191;28;20441;-73
2024/04/05 08:41:45;;;;;;;2.13;0.63;;;19.40;68.90;;;;;;5072858;28;20012;-73
2024/04/05 08:44:12;;;;;;;3.40;0.40;;;19.40;64.20;;;;;;5071178;28;20062;-74
2024/04/05 08:46:41;;;;;;;2.30;0.25;;;19.40;63.70;;;;;;5068836;28;20031;-73
2024/04/05 08:49:07;;;;;;;1.02;0.70;;;19.40;63.30;;;;;;5069206;28;20437;-73
2024/04/05 08:51:39;;;;;;;0.85;0.35;;;19.50;64.20;;;;;;5072546;28;20355;-72
2024/04/05 08:54:05;;;;;;;1.23;0.50;;;19.60;63.30;;;;;;5068551;28;20321;-74
2024/04/05 08:56:33;;;;;;;1.23;0.50;;;19.60;62.90;;;;;;5071885;28;20100;-73
2024/04/05 08:59:00;;;;;;;1.25;1.10;;;19.80;62.10;;;;;;5072782;28;20471;-74
2024/04/05 09:01:26;;;;;;;3.22;1.80;;;19.80;62.90;;;;;;5072323;28;20032;-73
2024/04/05 09:03:52;;;;;;;1.70;0.73;;;19.70;63.90;;;;;;5071630;28;20016;-73
2024/04/05 09:06:19;;;;;;;2.97;1.95;;;19.80;61.40;;;;;;5073240;28;20017;-73
2024/04/05 09:08:49;;;;;;;4.20;2.72;;;20.00;59.70;;;;;;5072700;28;20069;-74
2024/04/05 09:11:25;;;;;;;2.35;0.80;;;20.00;58.00;;;;;;5073025;28;20021;-73
2024/04/05 09:13:58;;;;;;;0.55;0.40;;;19.90;58.40;;;;;;5070565;28;20037;-73
2024/04/05 09:16:26;;;;;;;0.20;0.20;;;20.00;57.00;;;;;;5078575;28;20028;-72
2024/04/05 09:18:52;;;;;;;0.93;0.75;;;20.00;56.20;;;;;;5089553;28;20465;-72
2024/04/05 09:21:22;;;;;;;0.90;0.63;;;20.10;57.50;;;;;;5092515;28;20413;-73
2024/04/05 09:23:49;;;;;;;7.00;3.92;;;20.00;56.70;;;;;;5093312;28;20009;-73
2024/04/05 09:26:19;;;;;;;2.38;0.63;;;20.10;58.30;;;;;;5089489;28;20023;-73
2024/04/05 09:29:08;;;;;;;0.50;0.40;;;20.20;57.80;;;;;;5075835;28;20029;-73
2024/04/05 09:31:36;;;;;;;0.60;0.50;;;20.20;56.80;;;;;;5076706;28;19996;-73
2024/04/05 09:34:09;;;;;;;1.55;0.90;;;20.30;55.90;;;;;;5073112;28;20414;-73
2024/04/05 09:36:36;;;;;;;7.55;3.33;;;20.30;55.70;;;;;;5067130;28;20024;-72
2024/04/05 09:39:06;;;;;;;3.70;1.10;;;20.10;57.00;;;;;;5070434;28;20031;-74
2024/04/05 09:41:36;;;;;;;3.67;1.45;;;20.00;58.50;;;;;;5071472;28;20029;-73
2024/04/05 09:44:06;;;;;;;1.13;0.47;;;20.20;57.50;;;;;;5071265;28;20024;-72
2024/04/05 09:46:33;;;;;;;1.80;0.77;;;20.60;55.10;;;;;;5070645;28;20115;-73
2024/04/05 09:49:05;;;;;;;4.18;1.95;;;20.70;54.70;;;;;;5072216;28;20385;-73
2024/04/05 09:51:48;;;;;;;0.30;0.30;;;20.70;54.20;;;;;;5065781;28;20025;-73
2024/04/05 09:54:17;;;;;;;3.10;0.30;;;21.00;51.70;;;;;;5066950;28;20066;-73
2024/04/05 09:56:44;;;;;;;0.40;0.40;;;21.00;50.90;;;;;;5062743;28;20114;-74
2024/04/05 09:59:27;;;;;;;1.20;1.00;;;21.10;53.70;;;;;;5070139;28;20039;-74
2024/04/05 10:01:54;;;;;;;4.45;1.88;;;21.20;52.10;;;;;;5060408;28;20021;-74
2024/04/05 10:04:20;;;;;;;6.32;2.75;;;21.00;51.70;;;;;;5071157;28;20475;-73
2024/04/05 10:06:45;;;;;;;2.33;1.42;;;20.90;52.40;;;;;;5066895;28;20036;-74
2024/04/05 10:09:18;;;;;;;6.32;2.80;;;21.00;52.60;;;;;;5070379;28;20465;-74
2024/04/05 10:11:49;;;;;;;0.65;0.43;;;20.80;54.30;;;;;;5072361;28;20033;-74
2024/04/05 10:14:26;;;;;;;2.22;0.85;;;20.80;52.60;;;;;;5070945;28;20546;-73
2024/04/05 10:16:52;;;;;;;3.03;0.82;;;20.90;53.30;;;;;;5071416;28;20024;-73
2024/04/05 10:19:29;;;;;;;5.90;2.53;;;21.10;53.60;;;;;;5070400;28;20490;-74
2024/04/05 10:22:11;;;;;;;2.28;1.27;;;21.10;51.20;;;;;;5070452;28;20203;-74
2024/04/05 10:24:37;;;;;;;0.65;0.60;;;21.20;51.20;;;;;;5069971;28;20024;-73
2024/04/05 10:27:10;;;;;;;4.90;0.70;;;21.20;50.90;;;;;;5071681;28;20089;-74
2024/04/05 10:29:36;;;;;;;4.57;1.17;;;21.10;51.00;;;;;;5071931;28;20031;-73
2024/04/05 10:32:03;;;;;;;2.03;0.50;;;21.20;51.00;;;;;;5070485;28;20032;-74
2024/04/05 10:34:31;;;;;;;0.75;0.45;;;21.20;51.20;;;;;;5067190;28;20098;-74
2024/04/05 10:36:58;;;;;;;1.55;0.65;;;21.40;51.20;;;;;;5071329;28;20017;-74
2024/04/05 10:39:23;;;;;;;1.80;0.52;;;21.50;51.10;;;;;;5069964;28;20491;-73
2024/04/05 10:41:50;;;;;;;1.73;1.08;;;21.60;49.50;;;;;;5070958;28;20032;-74
2024/04/05 10:44:18;;;;;;;0.52;0.45;;;21.40;48.00;;;;;;5049416;28;20513;-72
2024/04/05 10:46:50;;;;;;;0.57;0.40;;;21.50;48.20;;;;;;5051281;28;20078;-72
2024/04/05 10:49:17;;;;;;;0.63;0.40;;;21.60;48.70;;;;;;5054557;28;20041;-71
2024/04/05 10:51:43;;;;;;;1.02;0.55;;;21.60;48.40;;;;;;5089920;28;20043;-72
2024/04/05 10:54:14;;;;;;;1.23;0.47;;;21.80;47.80;;;;;;5071525;28;20021;-72
2024/04/05 10:56:42;;;;;;;0.85;0.40;;;21.80;46.40;;;;;;5077226;28;20021;-73
2024/04/05 10:59:12;;;;;;;1.08;0.82;;;21.90;47.30;;;;;;5074194;28;20085;-73
2024/04/05 11:01:39;;;;;;;7.03;3.30;;;22.00;47.80;;;;;;5072540;28;20032;-73
2024/04/05 11:04:10;;;;;;;1.80;1.13;;;21.90;49.80;;;;;;5073957;28;20467;-73
2024/04/05 11:06:37;;;;;;;3.42;1.40;;;22.10;50.10;;;;;;5073539;28;20025;-73
2024/04/05 11:09:03;;;;;;;2.28;0.77;;;22.20;50.10;;;;;;5070067;28;20477;-73
2024/04/05 11:11:29;;;;;;;0.88;0.60;;;22.20;47.50;;;;;;5073231;28;20037;-73
2024/04/05 11:14:09;;;;;;;3.72;0.77;;;22.30;46.90;;;;;;5073898;28;20055;-72
2024/04/05 11:16:37;;;;;;;0.73;0.13;;;22.20;46.60;;;;;;5068580;28;20597;-73
2024/04/05 11:19:03;;;;;;;2.30;0.40;;;22.20;46.60;;;;;;5067604;28;20036;-73
2024/04/05 11:21:29;;;;;;;0.75;0.40;;;22.20;45.90;;;;;;5071158;28;20029;-73
2024/04/05 11:23:56;;;;;;;2.55;0.15;;;22.30;46.60;;;;;;5070528;28;20025;-74
2024/04/05 11:26:30;;;;;;;0.30;0.30;;;22.10;44.90;;;;;;5074455;28;20054;-74
2024/04/05 11:28:59;;;;;;;0.10;0.10;;;22.10;45.30;;;;;;5072283;28;20021;-73
2024/04/05 11:31:26;;;;;;;0.55;0.35;;;22.00;45.30;;;;;;5070704;28;20020;-72
2024/04/05 11:33:55;;;;;;;1.17;0.30;;;22.30;45.40;;;;;;5076018;28;20116;-73
2024/04/05 11:36:21;;;;;;;1.05;0.10;;;22.30;43.90;;;;;;5076817;28;20024;-72
2024/04/05 11:38:48;;;;;;;2.08;0.43;;;22.50;43.80;;;;;;5076587;28;20029;-73
2024/04/05 11:41:13;;;;;;;1.17;0.32;;;22.60;46.30;;;;;;5075122;28;20028;-73
2024/04/05 11:43:39;;;;;;;1.08;0.50;;;22.80;45.90;;;;;;5074917;28;20102;-73
2024/04/05 11:46:05;;;;;;;0.55;0.20;;;22.60;44.30;;;;;;5074272;28;20031;-72
2024/04/05 11:48:31;;;;;;;3.50;0.20;;;22.50;44.40;;;;;;5074295;28;20104;-73
2024/04/05 11:50:57;;;;;;;5.18;0.40;;;22.60;44.60;;;;;;5073688;28;20017;-72
2024/04/05 11:53:22;;;;;;;3.75;0.65;;;22.50;45.00;;;;;;5073094;28;20093;-73
2024/04/05 11:55:48;;;;;;;0.50;0.20;;;22.30;43.70;;;;;;5074055;28;20028;-73
2024/04/05 11:58:13;;;;;;;0.88;0.40;;;22.30;45.10;;;;;;5072666;28;20031;-73
2024/04/05 12:00:40;;;;;;;0.20;0.20;;;22.40;45.20;;;;;;5071439;28;20033;-73
2024/04/05 12:03:06;;;;;;;0.65;0.28;;;22.50;43.40;;;;;;5071837;28;20491;-73
2024/04/05 12:05:33;;;;;;;0.30;0.30;;;22.50;45.90;;;;;;5072335;28;20032;-73
2024/04/05 12:07:59;;;;;;;0.45;0.30;;;22.50;45.00;;;;;;5072728;28;20029;-74
2024/04/05 12:10:24;;;;;;;1.25;0.15;;;22.60;44.10;;;;;;5072291;28;20440;-74
2024/04/05 12:12:50;;;;;;;30.33;11.10;;;22.80;43.50;;;;;;5072900;28;20024;-74
2024/04/05 12:15:17;;;;;;;4.93;1.98;;;22.70;43.30;;;;;;5073286;28;20113;-73
2024/04/05 12:17:43;;;;;;;2.67;0.98;;;22.80;45.90;;;;;;5072091;28;20059;-73
2024/04/05 12:20:11;;;;;;;3.40;1.08;;;22.80;44.60;;;;;;5073273;28;20109;-74
2024/04/05 12:22:37;;;;;;;0.50;0.50;;;22.90;43.50;;;;;;5068071;28;20012;-73
2024/04/05 12:25:04;;;;;;;0.43;0.43;;;23.00;42.50;;;;;;5065627;28;20031;-74
2024/04/05 12:27:30;;;;;;;0.30;0.30;;;23.10;41.70;;;;;;5072947;28;20096;-73
2024/04/05 12:29:57;;;;;;;0.93;0.82;;;22.90;41.90;;;;;;5072914;28;20146;-74
2024/04/05 12:32:23;;;;;;;2.08;0.70;;;23.00;43.60;;;;;;5071768;28;20047;-74
2024/04/05 12:34:48;;;;;;;0.40;0.40;;;22.80;41.70;;;;;;5072477;28;20527;-74
2024/04/05 12:37:21;;;;;;;0.82;0.20;;;22.70;42.90;;;;;;5071721;28;20052;-74
2024/04/05 12:39:48;;;;;;;0.77;0.50;;;23.00;41.40;;;;;;5072898;28;20035;-74
2024/04/05 12:42:15;;;;;;;0.38;0.38;;;23.00;42.50;;;;;;5072805;28;20032;-74
2024/04/05 12:44:42;;;;;;;3.03;0.40;;;23.00;41.40;;;;;;5070942;28;20070;-74